sensor_id;sensor_type;location;lat;lon;timestamp;temperature;humidity
79010;DHT22;73031;44.726;37.760;2024-03-07T06:30:06;15.41;66.66
79010;DHT22;73031;44.726;37.760;2024-03-07T06:31:10;15.41;66.74
79010;DHT22;73031;44.726;37.760;2024-03-07T06:32:13;15.43;66.73
79010;DHT22;73031;44.726;37.760;2024-03-07T06:33:14;15.43;66.71
79010;DHT22;73031;44.726;37.760;2024-03-07T06:34:17;15.44;66.68
79010;DHT22;73031;44.726;37.760;2024-03-07T06:35:18;15.44;66.67
79010;DHT22;73031;44.726;37.760;2024-03-07T06:36:23;15.45;66.53
79010;DHT22;73031;44.726;37.760;2024-03-07T06:37:25;15.45;66.18
79010;DHT22;73031;44.726;37.760;2024-03-07T06:38:27;15.40;66.18
79010;DHT22;73031;44.726;37.760;2024-03-07T06:39:28;15.48;66.17
79010;DHT22;73031;44.726;37.760;2024-03-07T06:40:29;15.50;66.26
79010;DHT22;73031;44.726;37.760;2024-03-07T06:41:32;15.57;66.14
79010;DHT22;73031;44.726;37.760;2024-03-07T06:42:33;15.62;66.34
79010;DHT22;73031;44.726;37.760;2024-03-07T06:43:34;15.66;66.36
79010;DHT22;73031;44.726;37.760;2024-03-07T06:44:35;15.71;66.39
79010;DHT22;73031;44.726;37.760;2024-03-07T06:45:37;15.79;66.36
79010;DHT22;73031;44.726;37.760;2024-03-07T06:46:38;15.90;66.37
79010;DHT22;73031;44.726;37.760;2024-03-07T06:47:40;15.95;66.43
79010;DHT22;73031;44.726;37.760;2024-03-07T06:48:42;16.00;66.56
79010;DHT22;73031;44.726;37.760;2024-03-07T06:49:45;16.10;66.38
79010;DHT22;73031;44.726;37.760;2024-03-07T06:50:46;16.13;66.29
79010;DHT22;73031;44.726;37.760;2024-03-07T06:51:47;16.17;66.02
79010;DHT22;73031;44.726;37.760;2024-03-07T06:52:49;16.26;66.10
79010;DHT22;73031;44.726;37.760;2024-03-07T06:53:50;16.27;65.99
79010;DHT22;73031;44.726;37.760;2024-03-07T06:54:51;16.28;66.03
79010;DHT22;73031;44.726;37.760;2024-03-07T06:55:52;16.31;65.65
79010;DHT22;73031;44.726;37.760;2024-03-07T06:56:54;16.41;65.55
79010;DHT22;73031;44.726;37.760;2024-03-07T06:57:55;16.47;65.71
79010;DHT22;73031;44.726;37.760;2024-03-07T06:58:56;16.47;65.54
79010;DHT22;73031;44.726;37.760;2024-03-07T06:59:58;16.53;65.74
79010;DHT22;73031;44.726;37.760;2024-03-07T07:01:00;16.60;65.48
79010;DHT22;73031;44.726;37.760;2024-03-07T07:02:02;16.65;65.38
79010;DHT22;73031;44.726;37.760;2024-03-07T07:03:04;16.81;65.13
79010;DHT22;73031;44.726;37.760;2024-03-07T07:04:05;16.85;65.36
79010;DHT22;73031;44.726;37.760;2024-03-07T07:05:09;16.89;65.28
79010;DHT22;73031;44.726;37.760;2024-03-07T07:06:13;16.93;65.55
79010;DHT22;73031;44.726;37.760;2024-03-07T07:07:14;16.98;65.32
79010;DHT22;73031;44.726;37.760;2024-03-07T07:08:15;17.00;65.04
79010;DHT22;73031;44.726;37.760;2024-03-07T07:09:16;17.03;65.11
79010;DHT22;73031;44.726;37.760;2024-03-07T07:10:19;17.15;64.86
79010;DHT22;73031;44.726;37.760;2024-03-07T07:11:24;17.19;65.14
79010;DHT22;73031;44.726;37.760;2024-03-07T07:12:25;17.22;65.55
79010;DHT22;73031;44.726;37.760;2024-03-07T07:13:26;17.27;65.74
79010;DHT22;73031;44.726;37.760;2024-03-07T07:14:27;17.43;65.57
79010;DHT22;73031;44.726;37.760;2024-03-07T07:15:29;17.45;65.53
79010;DHT22;73031;44.726;37.760;2024-03-07T07:16:30;17.55;65.48
79010;DHT22;73031;44.726;37.760;2024-03-07T07:17:32;17.62;65.19
79010;DHT22;73031;44.726;37.760;2024-03-07T07:18:33;17.72;65.55
79010;DHT22;73031;44.726;37.760;2024-03-07T07:19:36;17.83;65.46
79010;DHT22;73031;44.726;37.760;2024-03-07T07:20:37;17.90;65.43
79010;DHT22;73031;44.726;37.760;2024-03-07T07:21:39;17.92;65.42
79010;DHT22;73031;44.726;37.760;2024-03-07T07:22:43;17.95;65.76
79010;DHT22;73031;44.726;37.760;2024-03-07T07:23:44;17.96;65.79
79010;DHT22;73031;44.726;37.760;2024-03-07T07:24:45;18.05;65.64
79010;DHT22;73031;44.726;37.760;2024-03-07T07:25:46;18.13;65.46
79010;DHT22;73031;44.726;37.760;2024-03-07T07:26:47;18.22;65.43
79010;DHT22;73031;44.726;37.760;2024-03-07T07:27:50;18.32;65.27
79010;DHT22;73031;44.726;37.760;2024-03-07T07:28:52;18.38;65.36
79010;DHT22;73031;44.726;37.760;2024-03-07T07:29:54;18.47;65.46
79010;DHT22;73031;44.726;37.760;2024-03-07T07:30:56;18.60;65.50
79010;DHT22;73031;44.726;37.760;2024-03-07T07:31:57;18.73;65.30
79010;DHT22;73031;44.726;37.760;2024-03-07T07:32:58;18.84;65.14
79010;DHT22;73031;44.726;37.760;2024-03-07T07:33:59;18.92;64.46
79010;DHT22;73031;44.726;37.760;2024-03-07T07:35:01;19.07;64.23
79010;DHT22;73031;44.726;37.760;2024-03-07T07:36:02;19.24;64.24
79010;DHT22;73031;44.726;37.760;2024-03-07T07:37:03;19.41;64.19
79010;DHT22;73031;44.726;37.760;2024-03-07T07:38:04;19.57;64.22
79010;DHT22;73031;44.726;37.760;2024-03-07T07:39:07;19.75;64.13
79010;DHT22;73031;44.726;37.760;2024-03-07T07:40:19;19.95;63.94
79010;DHT22;73031;44.726;37.760;2024-03-07T07:41:20;20.23;63.68
79010;DHT22;73031;44.726;37.760;2024-03-07T07:42:22;20.39;62.64
79010;DHT22;73031;44.726;37.760;2024-03-07T07:43:23;20.50;63.10
79010;DHT22;73031;44.726;37.760;2024-03-07T07:44:24;20.78;61.66
79010;DHT22;73031;44.726;37.760;2024-03-07T07:45:25;20.89;62.64
79010;DHT22;73031;44.726;37.760;2024-03-07T07:46:26;21.22;61.83
79010;DHT22;73031;44.726;37.760;2024-03-07T07:47:27;21.57;59.98
79010;DHT22;73031;44.726;37.760;2024-03-07T07:48:28;22.22;60.18
79010;DHT22;73031;44.726;37.760;2024-03-07T07:49:29;23.09;57.94
79010;DHT22;73031;44.726;37.760;2024-03-07T07:50:31;23.43;58.16
79010;DHT22;73031;44.726;37.760;2024-03-07T07:51:35;23.51;56.42
79010;DHT22;73031;44.726;37.760;2024-03-07T07:52:36;23.88;59.00
79010;DHT22;73031;44.726;37.760;2024-03-07T07:53:38;23.81;53.79
79010;DHT22;73031;44.726;37.760;2024-03-07T07:54:44;23.78;52.67
79010;DHT22;73031;44.726;37.760;2024-03-07T07:55:45;23.86;52.91
79010;DHT22;73031;44.726;37.760;2024-03-07T07:56:47;23.92;53.09
79010;DHT22;73031;44.726;37.760;2024-03-07T07:57:51;24.05;52.00
79010;DHT22;73031;44.726;37.760;2024-03-07T07:58:55;24.25;51.59
79010;DHT22;73031;44.726;37.760;2024-03-07T07:59:56;24.41;51.00
79010;DHT22;73031;44.726;37.760;2024-03-07T08:00:57;24.46;51.01
79010;DHT22;73031;44.726;37.760;2024-03-07T08:01:58;24.65;50.02
79010;DHT22;73031;44.726;37.760;2024-03-07T08:03:01;24.82;49.92
79010;DHT22;73031;44.726;37.760;2024-03-07T08:04:02;24.74;49.86
79010;DHT22;73031;44.726;37.760;2024-03-07T08:05:04;24.63;49.65
79010;DHT22;73031;44.726;37.760;2024-03-07T08:06:06;24.60;48.97
79010;DHT22;73031;44.726;37.760;2024-03-07T08:07:07;24.57;49.61
79010;DHT22;73031;44.726;37.760;2024-03-07T08:08:08;24.47;49.40
79010;DHT22;73031;44.726;37.760;2024-03-07T08:09:11;24.43;52.59
79010;DHT22;73031;44.726;37.760;2024-03-07T08:10:26;24.35;55.65
79010;DHT22;73031;44.726;37.760;2024-03-07T08:11:29;24.29;54.00
79010;DHT22;73031;44.726;37.760;2024-03-07T08:12:30;24.23;55.47
79010;DHT22;73031;44.726;37.760;2024-03-07T08:13:31;24.11;55.38
79010;DHT22;73031;44.726;37.760;2024-03-07T08:14:32;24.04;55.85
79010;DHT22;73031;44.726;37.760;2024-03-07T08:15:33;23.98;54.85
79010;DHT22;73031;44.726;37.760;2024-03-07T08:16:34;23.91;54.99
79010;DHT22;73031;44.726;37.760;2024-03-07T08:17:36;23.85;54.93
79010;DHT22;73031;44.726;37.760;2024-03-07T08:18:37;23.79;55.23
79010;DHT22;73031;44.726;37.760;2024-03-07T08:19:39;23.71;55.61
79010;DHT22;73031;44.726;37.760;2024-03-07T08:20:59;23.57;55.82
79010;DHT22;73031;44.726;37.760;2024-03-07T08:22:00;23.53;55.45
79010;DHT22;73031;44.726;37.760;2024-03-07T08:23:02;23.46;54.43
79010;DHT22;73031;44.726;37.760;2024-03-07T08:24:04;23.39;54.94
79010;DHT22;73031;44.726;37.760;2024-03-07T08:25:13;23.31;54.29
79010;DHT22;73031;44.726;37.760;2024-03-07T08:26:14;23.20;55.10
79010;DHT22;73031;44.726;37.760;2024-03-07T08:27:16;23.13;55.84
79010;DHT22;73031;44.726;37.760;2024-03-07T08:28:18;23.06;55.16
79010;DHT22;73031;44.726;37.760;2024-03-07T08:29:19;22.96;56.14
79010;DHT22;73031;44.726;37.760;2024-03-07T08:30:21;22.88;54.88
79010;DHT22;73031;44.726;37.760;2024-03-07T08:31:22;22.79;55.55
79010;DHT22;73031;44.726;37.760;2024-03-07T08:32:23;22.71;55.85
79010;DHT22;73031;44.726;37.760;2024-03-07T08:33:24;22.61;56.29
79010;DHT22;73031;44.726;37.760;2024-03-07T08:34:26;22.54;55.43
79010;DHT22;73031;44.726;37.760;2024-03-07T08:35:28;22.47;55.52
79010;DHT22;73031;44.726;37.760;2024-03-07T08:36:30;22.39;55.16
79010;DHT22;73031;44.726;37.760;2024-03-07T08:37:31;22.32;55.67
79010;DHT22;73031;44.726;37.760;2024-03-07T08:38:32;22.23;55.48
79010;DHT22;73031;44.726;37.760;2024-03-07T08:39:33;22.19;55.36
79010;DHT22;73031;44.726;37.760;2024-03-07T08:40:35;22.12;55.07
79010;DHT22;73031;44.726;37.760;2024-03-07T08:41:36;22.03;55.07
79010;DHT22;73031;44.726;37.760;2024-03-07T08:42:41;21.98;54.82
79010;DHT22;73031;44.726;37.760;2024-03-07T08:43:42;21.91;54.80
79010;DHT22;73031;44.726;37.760;2024-03-07T08:44:44;21.82;55.11
79010;DHT22;73031;44.726;37.760;2024-03-07T08:45:45;21.77;54.89
79010;DHT22;73031;44.726;37.760;2024-03-07T08:46:46;21.74;54.83
79010;DHT22;73031;44.726;37.760;2024-03-07T08:47:51;21.67;54.96
79010;DHT22;73031;44.726;37.760;2024-03-07T08:48:53;21.62;55.24
79010;DHT22;73031;44.726;37.760;2024-03-07T08:49:54;21.55;55.08
79010;DHT22;73031;44.726;37.760;2024-03-07T08:50:55;21.50;55.16
79010;DHT22;73031;44.726;37.760;2024-03-07T08:51:56;21.41;55.17
79010;DHT22;73031;44.726;37.760;2024-03-07T08:52:57;21.37;55.32
79010;DHT22;73031;44.726;37.760;2024-03-07T08:53:58;21.32;55.04
79010;DHT22;73031;44.726;37.760;2024-03-07T08:55:00;21.23;54.99
79010;DHT22;73031;44.726;37.760;2024-03-07T08:56:01;21.18;55.19
79010;DHT22;73031;44.726;37.760;2024-03-07T08:57:03;21.13;55.38
79010;DHT22;73031;44.726;37.760;2024-03-07T08:58:05;21.03;55.60
79010;DHT22;73031;44.726;37.760;2024-03-07T08:59:07;20.94;56.08
79010;DHT22;73031;44.726;37.760;2024-03-07T09:00:08;20.88;55.92
79010;DHT22;73031;44.726;37.760;2024-03-07T09:01:10;20.78;56.29
79010;DHT22;73031;44.726;37.760;2024-03-07T09:02:11;20.71;56.08
79010;DHT22;73031;44.726;37.760;2024-03-07T09:03:12;20.64;56.43
79010;DHT22;73031;44.726;37.760;2024-03-07T09:04:13;20.57;56.63
79010;DHT22;73031;44.726;37.760;2024-03-07T09:05:15;20.50;56.53
79010;DHT22;73031;44.726;37.760;2024-03-07T09:06:16;20.40;56.74
79010;DHT22;73031;44.726;37.760;2024-03-07T09:07:17;20.36;56.70
79010;DHT22;73031;44.726;37.760;2024-03-07T09:08:18;20.29;56.77
79010;DHT22;73031;44.726;37.760;2024-03-07T09:09:20;20.24;56.30
79010;DHT22;73031;44.726;37.760;2024-03-07T09:10:21;20.16;56.82
79010;DHT22;73031;44.726;37.760;2024-03-07T09:11:22;20.10;56.56
79010;DHT22;73031;44.726;37.760;2024-03-07T09:12:23;20.05;56.86
79010;DHT22;73031;44.726;37.760;2024-03-07T09:13:28;19.99;56.66
79010;DHT22;73031;44.726;37.760;2024-03-07T09:14:29;19.93;56.80
79010;DHT22;73031;44.726;37.760;2024-03-07T09:15:30;19.86;56.83
79010;DHT22;73031;44.726;37.760;2024-03-07T09:16:34;19.81;56.56
79010;DHT22;73031;44.726;37.760;2024-03-07T09:17:36;19.75;56.86
79010;DHT22;73031;44.726;37.760;2024-03-07T09:18:37;19.71;56.86
79010;DHT22;73031;44.726;37.760;2024-03-07T09:19:40;19.67;56.87
79010;DHT22;73031;44.726;37.760;2024-03-07T09:20:42;19.62;57.02
79010;DHT22;73031;44.726;37.760;2024-03-07T09:21:43;19.55;57.26
79010;DHT22;73031;44.726;37.760;2024-03-07T09:22:46;19.54;57.35
79010;DHT22;73031;44.726;37.760;2024-03-07T09:23:51;19.46;57.00
79010;DHT22;73031;44.726;37.760;2024-03-07T09:24:52;19.44;57.54
79010;DHT22;73031;44.726;37.760;2024-03-07T09:25:53;19.41;57.62
79010;DHT22;73031;44.726;37.760;2024-03-07T09:26:54;19.38;57.39
79010;DHT22;73031;44.726;37.760;2024-03-07T09:27:57;19.33;57.34
79010;DHT22;73031;44.726;37.760;2024-03-07T09:28:58;19.31;57.52
79010;DHT22;73031;44.726;37.760;2024-03-07T09:29:59;19.24;57.46
79010;DHT22;73031;44.726;37.760;2024-03-07T09:31:00;19.23;57.56
79010;DHT22;73031;44.726;37.760;2024-03-07T09:32:01;19.19;57.56
79010;DHT22;73031;44.726;37.760;2024-03-07T09:33:03;19.17;57.76
79010;DHT22;73031;44.726;37.760;2024-03-07T09:34:05;19.16;57.58
79010;DHT22;73031;44.726;37.760;2024-03-07T09:35:07;19.12;57.81
79010;DHT22;73031;44.726;37.760;2024-03-07T09:36:12;19.12;57.83
79010;DHT22;73031;44.726;37.760;2024-03-07T09:37:13;19.07;57.72
79010;DHT22;73031;44.726;37.760;2024-03-07T09:38:14;19.05;57.73
79010;DHT22;73031;44.726;37.760;2024-03-07T09:39:16;19.02;57.93
79010;DHT22;73031;44.726;37.760;2024-03-07T09:40:17;18.96;57.83
79010;DHT22;73031;44.726;37.760;2024-03-07T09:41:18;18.91;58.09
79010;DHT22;73031;44.726;37.760;2024-03-07T09:42:21;18.87;58.05
79010;DHT22;73031;44.726;37.760;2024-03-07T09:43:24;18.82;58.19
79010;DHT22;73031;44.726;37.760;2024-03-07T09:44:28;18.75;58.18
79010;DHT22;73031;44.726;37.760;2024-03-07T09:45:30;18.72;58.45
79010;DHT22;73031;44.726;37.760;2024-03-07T09:46:34;18.67;58.50
79010;DHT22;73031;44.726;37.760;2024-03-07T09:47:36;18.65;58.60
79010;DHT22;73031;44.726;37.760;2024-03-07T09:48:38;18.62;58.66
79010;DHT22;73031;44.726;37.760;2024-03-07T09:49:39;18.55;58.75
79010;DHT22;73031;44.726;37.760;2024-03-07T09:50:40;18.51;58.28
79010;DHT22;73031;44.726;37.760;2024-03-07T09:51:44;18.44;58.86
79010;DHT22;73031;44.726;37.760;2024-03-07T09:52:46;18.40;58.89
79010;DHT22;73031;44.726;37.760;2024-03-07T09:53:50;18.37;59.06
79010;DHT22;73031;44.726;37.760;2024-03-07T09:54:52;18.32;59.16
79010;DHT22;73031;44.726;37.760;2024-03-07T09:55:54;18.24;59.25
79010;DHT22;73031;44.726;37.760;2024-03-07T09:56:59;18.20;59.23
79010;DHT22;73031;44.726;37.760;2024-03-07T09:58:05;18.14;59.33
79010;DHT22;73031;44.726;37.760;2024-03-07T09:59:11;18.12;59.42
79010;DHT22;73031;44.726;37.760;2024-03-07T10:00:17;18.03;59.55
79010;DHT22;73031;44.726;37.760;2024-03-07T10:01:26;18.00;59.67
79010;DHT22;73031;44.726;37.760;2024-03-07T10:02:30;17.98;59.82
79010;DHT22;73031;44.726;37.760;2024-03-07T10:03:34;17.99;59.86
79010;DHT22;73031;44.726;37.760;2024-03-07T10:04:46;17.95;59.63
79010;DHT22;73031;44.726;37.760;2024-03-07T10:05:51;17.88;59.68
79010;DHT22;73031;44.726;37.760;2024-03-07T10:06:54;17.82;59.76
79010;DHT22;73031;44.726;37.760;2024-03-07T10:07:56;17.83;59.75
79010;DHT22;73031;44.726;37.760;2024-03-07T10:08:57;17.78;59.94
79010;DHT22;73031;44.726;37.760;2024-03-07T10:09:59;17.77;59.96
79010;DHT22;73031;44.726;37.760;2024-03-07T10:11:01;17.77;60.07
79010;DHT22;73031;44.726;37.760;2024-03-07T10:12:02;17.72;60.10
79010;DHT22;73031;44.726;37.760;2024-03-07T10:13:05;17.75;60.12
79010;DHT22;73031;44.726;37.760;2024-03-07T10:14:09;17.71;60.06
79010;DHT22;73031;44.726;37.760;2024-03-07T10:15:11;17.68;60.13
79010;DHT22;73031;44.726;37.760;2024-03-07T10:16:15;17.67;60.13
79010;DHT22;73031;44.726;37.760;2024-03-07T10:17:18;17.67;60.21
79010;DHT22;73031;44.726;37.760;2024-03-07T10:18:19;17.64;60.32
79010;DHT22;73031;44.726;37.760;2024-03-07T10:19:23;17.61;60.25
79010;DHT22;73031;44.726;37.760;2024-03-07T10:20:24;17.58;61.51
79010;DHT22;73031;44.726;37.760;2024-03-07T10:21:25;17.64;61.36
79010;DHT22;73031;44.726;37.760;2024-03-07T10:22:27;17.64;61.76
79010;DHT22;73031;44.726;37.760;2024-03-07T10:23:28;17.36;49.22
79010;DHT22;73031;44.726;37.760;2024-03-07T10:24:29;16.96;49.44
79010;DHT22;73031;44.726;37.760;2024-03-07T10:25:33;16.57;48.49
79010;DHT22;73031;44.726;37.760;2024-03-07T10:26:37;16.20;47.37
79010;DHT22;73031;44.726;37.760;2024-03-07T10:27:38;15.99;50.00
79010;DHT22;73031;44.726;37.760;2024-03-07T10:28:40;15.79;49.45
79010;DHT22;73031;44.726;37.760;2024-03-07T10:29:41;15.64;49.77
79010;DHT22;73031;44.726;37.760;2024-03-07T10:30:43;15.43;49.21
79010;DHT22;73031;44.726;37.760;2024-03-07T10:31:47;15.33;50.36
79010;DHT22;73031;44.726;37.760;2024-03-07T10:32:55;15.24;50.26
79010;DHT22;73031;44.726;37.760;2024-03-07T10:34:01;15.17;51.20
79010;DHT22;73031;44.726;37.760;2024-03-07T10:35:07;15.00;49.56
79010;DHT22;73031;44.726;37.760;2024-03-07T10:36:09;14.86;51.64
79010;DHT22;73031;44.726;37.760;2024-03-07T10:37:16;14.82;51.12
79010;DHT22;73031;44.726;37.760;2024-03-07T10:38:18;14.76;51.77
79010;DHT22;73031;44.726;37.760;2024-03-07T10:39:19;14.74;51.16
79010;DHT22;73031;44.726;37.760;2024-03-07T10:40:23;14.62;51.12
79010;DHT22;73031;44.726;37.760;2024-03-07T10:41:28;14.55;51.88
79010;DHT22;73031;44.726;37.760;2024-03-07T10:42:31;14.45;51.70
79010;DHT22;73031;44.726;37.760;2024-03-07T10:43:36;14.38;51.34
79010;DHT22;73031;44.726;37.760;2024-03-07T10:44:44;14.34;51.66
79010;DHT22;73031;44.726;37.760;2024-03-07T10:45:47;14.28;51.67
79010;DHT22;73031;44.726;37.760;2024-03-07T10:46:52;14.23;51.03
79010;DHT22;73031;44.726;37.760;2024-03-07T10:47:58;14.14;52.82
79010;DHT22;73031;44.726;37.760;2024-03-07T10:49:05;14.05;50.03
79010;DHT22;73031;44.726;37.760;2024-03-07T10:50:17;13.95;51.72
79010;DHT22;73031;44.726;37.760;2024-03-07T10:51:33;13.86;53.60
79010;DHT22;73031;44.726;37.760;2024-03-07T10:52:41;13.86;51.51
79010;DHT22;73031;44.726;37.760;2024-03-07T10:53:59;13.81;52.42
79010;DHT22;73031;44.726;37.760;2024-03-07T10:55:33;13.69;52.23
79010;DHT22;73031;44.726;37.760;2024-03-07T10:56:56;13.59;52.42
79010;DHT22;73031;44.726;37.760;2024-03-07T10:59:26;13.58;52.91
79010;DHT22;73031;44.726;37.760;2024-03-07T11:00:32;13.54;53.51
79010;DHT22;73031;44.726;37.760;2024-03-07T11:01:59;13.50;53.29
79010;DHT22;73031;44.726;37.760;2024-03-07T11:03:00;13.40;51.45
79010;DHT22;73031;44.726;37.760;2024-03-07T11:04:03;13.06;51.83
79010;DHT22;73031;44.726;37.760;2024-03-07T11:05:06;12.88;53.34
79010;DHT22;73031;44.726;37.760;2024-03-07T11:06:13;12.75;52.31
79010;DHT22;73031;44.726;37.760;2024-03-07T11:07:15;12.69;53.85
79010;DHT22;73031;44.726;37.760;2024-03-07T11:08:17;12.72;55.13
79010;DHT22;73031;44.726;37.760;2024-03-07T11:09:19;12.62;52.98
79010;DHT22;73031;44.726;37.760;2024-03-07T11:10:25;12.37;53.20
79010;DHT22;73031;44.726;37.760;2024-03-07T11:11:28;12.33;55.10
79010;DHT22;73031;44.726;37.760;2024-03-07T11:12:30;12.42;55.22
79010;DHT22;73031;44.726;37.760;2024-03-07T11:13:33;12.44;54.94
79010;DHT22;73031;44.726;37.760;2024-03-07T11:14:35;12.51;54.73
79010;DHT22;73031;44.726;37.760;2024-03-07T11:15:40;12.54;54.47
79010;DHT22;73031;44.726;37.760;2024-03-07T11:16:43;12.44;55.44
79010;DHT22;73031;44.726;37.760;2024-03-07T11:17:47;12.45;53.74
79010;DHT22;73031;44.726;37.760;2024-03-07T11:20:26;12.24;54.53
79010;DHT22;73031;44.726;37.760;2024-03-07T11:21:40;12.10;54.25
79010;DHT22;73031;44.726;37.760;2024-03-07T11:22:42;12.09;54.91
79010;DHT22;73031;44.726;37.760;2024-03-07T11:23:47;12.03;54.91
79010;DHT22;73031;44.726;37.760;2024-03-07T11:25:04;11.97;54.56
79010;DHT22;73031;44.726;37.760;2024-03-07T11:26:10;12.04;56.89
79010;DHT22;73031;44.726;37.760;2024-03-07T11:27:12;12.23;56.70
79010;DHT22;73031;44.726;37.760;2024-03-07T11:28:16;12.45;57.55
79010;DHT22;73031;44.726;37.760;2024-03-07T11:29:43;12.59;55.69
79010;DHT22;73031;44.726;37.760;2024-03-07T11:30:44;12.55;54.75
79010;DHT22;73031;44.726;37.760;2024-03-07T11:31:45;12.48;55.31
79010;DHT22;73031;44.726;37.760;2024-03-07T11:32:47;12.54;55.08
79010;DHT22;73031;44.726;37.760;2024-03-07T11:34:15;12.59;55.91
79010;DHT22;73031;44.726;37.760;2024-03-07T11:35:16;12.48;53.52
79010;DHT22;73031;44.726;37.760;2024-03-07T11:36:42;12.36;53.30
79010;DHT22;73031;44.726;37.760;2024-03-07T11:37:44;11.93;54.17
79010;DHT22;73031;44.726;37.760;2024-03-07T11:38:48;11.74;55.30
79010;DHT22;73031;44.726;37.760;2024-03-07T11:39:50;11.69;57.05
79010;DHT22;73031;44.726;37.760;2024-03-07T11:40:54;11.71;56.15
79010;DHT22;73031;44.726;37.760;2024-03-07T11:42:02;11.65;55.63
79010;DHT22;73031;44.726;37.760;2024-03-07T11:43:07;11.66;56.22
79010;DHT22;73031;44.726;37.760;2024-03-07T11:44:08;11.65;56.73
79010;DHT22;73031;44.726;37.760;2024-03-07T11:45:13;11.65;56.21
79010;DHT22;73031;44.726;37.760;2024-03-07T11:46:25;11.57;56.12
79010;DHT22;73031;44.726;37.760;2024-03-07T11:47:37;11.47;56.75
79010;DHT22;73031;44.726;37.760;2024-03-07T11:48:39;11.35;55.96
79010;DHT22;73031;44.726;37.760;2024-03-07T11:49:44;11.28;57.62
79010;DHT22;73031;44.726;37.760;2024-03-07T11:50:49;11.31;56.77
79010;DHT22;73031;44.726;37.760;2024-03-07T11:51:51;11.21;56.39
79010;DHT22;73031;44.726;37.760;2024-03-07T11:52:53;11.23;58.83
79010;DHT22;73031;44.726;37.760;2024-03-07T11:53:55;11.31;57.60
79010;DHT22;73031;44.726;37.760;2024-03-07T11:54:56;11.37;57.38
79010;DHT22;73031;44.726;37.760;2024-03-07T11:56:05;11.34;55.76
79010;DHT22;73031;44.726;37.760;2024-03-07T11:57:10;11.16;56.32
79010;DHT22;73031;44.726;37.760;2024-03-07T11:58:21;11.19;57.17
79010;DHT22;73031;44.726;37.760;2024-03-07T11:59:23;11.24;56.85
79010;DHT22;73031;44.726;37.760;2024-03-07T12:00:25;11.23;55.88
79010;DHT22;73031;44.726;37.760;2024-03-07T12:01:26;11.16;57.48
79010;DHT22;73031;44.726;37.760;2024-03-07T12:02:31;11.20;56.98
79010;DHT22;73031;44.726;37.760;2024-03-07T12:03:32;11.04;56.25
79010;DHT22;73031;44.726;37.760;2024-03-07T12:04:35;10.86;57.67
79010;DHT22;73031;44.726;37.760;2024-03-07T12:05:37;10.88;57.69
79010;DHT22;73031;44.726;37.760;2024-03-07T12:06:38;10.97;58.12
79010;DHT22;73031;44.726;37.760;2024-03-07T12:07:40;11.12;57.98
79010;DHT22;73031;44.726;37.760;2024-03-07T12:08:41;11.20;57.63
79010;DHT22;73031;44.726;37.760;2024-03-07T12:09:45;11.23;56.49
79010;DHT22;73031;44.726;37.760;2024-03-07T12:10:51;11.16;57.63
79010;DHT22;73031;44.726;37.760;2024-03-07T12:11:57;11.13;56.55
79010;DHT22;73031;44.726;37.760;2024-03-07T12:13:00;10.92;57.79
79010;DHT22;73031;44.726;37.760;2024-03-07T12:14:02;10.93;56.77
79010;DHT22;73031;44.726;37.760;2024-03-07T12:15:06;10.75;57.39
79010;DHT22;73031;44.726;37.760;2024-03-07T12:16:10;10.65;58.02
79010;DHT22;73031;44.726;37.760;2024-03-07T12:17:11;10.79;59.26
79010;DHT22;73031;44.726;37.760;2024-03-07T12:18:13;10.91;58.19
79010;DHT22;73031;44.726;37.760;2024-03-07T12:19:18;11.02;58.16
79010;DHT22;73031;44.726;37.760;2024-03-07T12:20:20;11.06;57.77
79010;DHT22;73031;44.726;37.760;2024-03-07T12:21:48;11.04;57.07
79010;DHT22;73031;44.726;37.760;2024-03-07T12:22:50;10.99;58.71
79010;DHT22;73031;44.726;37.760;2024-03-07T12:23:53;10.99;58.45
79010;DHT22;73031;44.726;37.760;2024-03-07T12:25:02;11.12;59.18
79010;DHT22;73031;44.726;37.760;2024-03-07T12:26:04;11.17;58.20
79010;DHT22;73031;44.726;37.760;2024-03-07T12:27:09;11.24;58.45
79010;DHT22;73031;44.726;37.760;2024-03-07T12:28:15;11.28;57.76
79010;DHT22;73031;44.726;37.760;2024-03-07T12:29:19;11.21;56.15
79010;DHT22;73031;44.726;37.760;2024-03-07T12:30:26;11.09;57.47
79010;DHT22;73031;44.726;37.760;2024-03-07T12:31:33;11.10;57.09
79010;DHT22;73031;44.726;37.760;2024-03-07T12:32:34;11.12;57.36
79010;DHT22;73031;44.726;37.760;2024-03-07T12:33:36;11.09;57.63
79010;DHT22;73031;44.726;37.760;2024-03-07T12:34:40;11.14;58.13
79010;DHT22;73031;44.726;37.760;2024-03-07T12:35:53;11.23;57.92
79010;DHT22;73031;44.726;37.760;2024-03-07T12:37:00;11.19;57.89
79010;DHT22;73031;44.726;37.760;2024-03-07T12:38:02;11.23;58.24
79010;DHT22;73031;44.726;37.760;2024-03-07T12:39:04;11.26;57.16
79010;DHT22;73031;44.726;37.760;2024-03-07T12:40:26;11.26;57.91
79010;DHT22;73031;44.726;37.760;2024-03-07T12:41:35;11.09;55.87
79010;DHT22;73031;44.726;37.760;2024-03-07T12:42:36;10.93;57.77
79010;DHT22;73031;44.726;37.760;2024-03-07T12:43:37;10.92;57.07
79010;DHT22;73031;44.726;37.760;2024-03-07T12:44:45;10.82;57.96
79010;DHT22;73031;44.726;37.760;2024-03-07T12:45:50;10.79;58.33
79010;DHT22;73031;44.726;37.760;2024-03-07T12:46:52;10.79;57.12
79010;DHT22;73031;44.726;37.760;2024-03-07T12:47:56;10.72;56.73
79010;DHT22;73031;44.726;37.760;2024-03-07T12:49:05;10.49;57.12
79010;DHT22;73031;44.726;37.760;2024-03-07T12:50:06;10.45;59.16
79010;DHT22;73031;44.726;37.760;2024-03-07T12:51:10;10.57;59.26
79010;DHT22;73031;44.726;37.760;2024-03-07T12:52:16;10.55;58.43
79010;DHT22;73031;44.726;37.760;2024-03-07T12:53:17;10.62;58.70
79010;DHT22;73031;44.726;37.760;2024-03-07T12:54:19;10.66;58.58
79010;DHT22;73031;44.726;37.760;2024-03-07T12:55:20;10.69;58.56
79010;DHT22;73031;44.726;37.760;2024-03-07T12:56:24;10.62;58.83
79010;DHT22;73031;44.726;37.760;2024-03-07T12:57:25;10.69;58.96
79010;DHT22;73031;44.726;37.760;2024-03-07T12:58:26;10.78;58.65
79010;DHT22;73031;44.726;37.760;2024-03-07T12:59:29;10.83;58.06
79010;DHT22;73031;44.726;37.760;2024-03-07T13:00:31;10.80;57.04
79010;DHT22;73031;44.726;37.760;2024-03-07T13:01:32;10.73;58.59
79010;DHT22;73031;44.726;37.760;2024-03-07T13:02:34;10.72;57.58
79010;DHT22;73031;44.726;37.760;2024-03-07T13:03:35;10.68;57.76
79010;DHT22;73031;44.726;37.760;2024-03-07T13:04:36;10.68;58.07
79010;DHT22;73031;44.726;37.760;2024-03-07T13:05:41;10.58;57.52
79010;DHT22;73031;44.726;37.760;2024-03-07T13:06:43;10.36;57.98